sensor_id;sensor_type;location;lat;lon;timestamp;temperature;humidity
80254;DHT22;69563;37.974;23.708;2023-10-08T00:01:53;24.80;46.90
80254;DHT22;69563;37.974;23.708;2023-10-08T00:04:21;24.80;46.90
80254;DHT22;69563;37.974;23.708;2023-10-08T00:06:47;24.80;46.90
80254;DHT22;69563;37.974;23.708;2023-10-08T00:09:13;24.70;46.90
80254;DHT22;69563;37.974;23.708;2023-10-08T00:11:41;24.80;46.90
80254;DHT22;69563;37.974;23.708;2023-10-08T00:14:08;24.80;46.90
80254;DHT22;69563;37.974;23.708;2023-10-08T00:16:42;24.80;46.80
80254;DHT22;69563;37.974;23.708;2023-10-08T00:19:08;24.80;46.80
80254;DHT22;69563;37.974;23.708;2023-10-08T00:21:36;24.80;46.90
80254;DHT22;69563;37.974;23.708;2023-10-08T00:24:04;24.70;46.80
80254;DHT22;69563;37.974;23.708;2023-10-08T00:26:32;24.80;46.90
80254;DHT22;69563;37.974;23.708;2023-10-08T00:29:02;24.70;46.90
80254;DHT22;69563;37.974;23.708;2023-10-08T00:31:47;24.70;47.00
80254;DHT22;69563;37.974;23.708;2023-10-08T00:34:16;24.70;47.00
80254;DHT22;69563;37.974;23.708;2023-10-08T00:36:46;24.70;47.00
80254;DHT22;69563;37.974;23.708;2023-10-08T00:39:14;24.70;47.00
80254;DHT22;69563;37.974;23.708;2023-10-08T00:41:44;24.60;47.10
80254;DHT22;69563;37.974;23.708;2023-10-08T00:44:12;24.60;47.10
80254;DHT22;69563;37.974;23.708;2023-10-08T00:46:39;24.60;47.10
80254;DHT22;69563;37.974;23.708;2023-10-08T00:49:13;24.60;47.10
80254;DHT22;69563;37.974;23.708;2023-10-08T00:51:55;24.60;47.20
80254;DHT22;69563;37.974;23.708;2023-10-08T00:54:34;24.60;47.20
80254;DHT22;69563;37.974;23.708;2023-10-08T00:57:17;24.60;47.10
80254;DHT22;69563;37.974;23.708;2023-10-08T00:59:50;24.60;47.20
80254;DHT22;69563;37.974;23.708;2023-10-08T01:02:26;24.60;47.20
80254;DHT22;69563;37.974;23.708;2023-10-08T01:04:54;24.60;47.10
80254;DHT22;69563;37.974;23.708;2023-10-08T01:07:22;24.60;47.20
80254;DHT22;69563;37.974;23.708;2023-10-08T01:09:49;24.60;47.20
80254;DHT22;69563;37.974;23.708;2023-10-08T01:12:24;24.60;47.20
80254;DHT22;69563;37.974;23.708;2023-10-08T01:15:12;24.60;47.20
80254;DHT22;69563;37.974;23.708;2023-10-08T01:17:49;24.60;47.20
80254;DHT22;69563;37.974;23.708;2023-10-08T01:20:27;24.60;47.30
80254;DHT22;69563;37.974;23.708;2023-10-08T01:22:58;24.60;47.30
80254;DHT22;69563;37.974;23.708;2023-10-08T01:25:25;24.60;47.30
80254;DHT22;69563;37.974;23.708;2023-10-08T01:27:58;24.50;47.30
80254;DHT22;69563;37.974;23.708;2023-10-08T01:30:34;24.50;47.40
80254;DHT22;69563;37.974;23.708;2023-10-08T01:33:02;24.50;47.40
80254;DHT22;69563;37.974;23.708;2023-10-08T01:35:28;24.50;47.40
80254;DHT22;69563;37.974;23.708;2023-10-08T01:37:57;24.50;47.40
80254;DHT22;69563;37.974;23.708;2023-10-08T01:40:25;24.50;47.50
80254;DHT22;69563;37.974;23.708;2023-10-08T01:42:51;24.50;47.50
80254;DHT22;69563;37.974;23.708;2023-10-08T01:45:18;24.50;47.50
80254;DHT22;69563;37.974;23.708;2023-10-08T01:47:45;24.50;47.50
80254;DHT22;69563;37.974;23.708;2023-10-08T01:50:10;24.50;47.50
80254;DHT22;69563;37.974;23.708;2023-10-08T01:52:51;24.50;47.50
80254;DHT22;69563;37.974;23.708;2023-10-08T01:55:17;24.50;47.50
80254;DHT22;69563;37.974;23.708;2023-10-08T01:57:49;24.50;47.50
80254;DHT22;69563;37.974;23.708;2023-10-08T02:00:17;24.50;47.60
80254;DHT22;69563;37.974;23.708;2023-10-08T02:02:51;24.50;47.50
80254;DHT22;69563;37.974;23.708;2023-10-08T02:05:17;24.50;47.50
80254;DHT22;69563;37.974;23.708;2023-10-08T02:07:47;24.50;47.50
80254;DHT22;69563;37.974;23.708;2023-10-08T02:10:13;24.50;47.50
80254;DHT22;69563;37.974;23.708;2023-10-08T02:12:40;24.50;47.50
80254;DHT22;69563;37.974;23.708;2023-10-08T02:15:07;24.50;47.60
80254;DHT22;69563;37.974;23.708;2023-10-08T02:17:33;24.40;47.60
80254;DHT22;69563;37.974;23.708;2023-10-08T02:20:00;24.40;47.60
80254;DHT22;69563;37.974;23.708;2023-10-08T02:22:25;24.40;48.60
80254;DHT22;69563;37.974;23.708;2023-10-08T02:24:51;24.40;47.60
80254;DHT22;69563;37.974;23.708;2023-10-08T02:27:19;24.40;47.70
80254;DHT22;69563;37.974;23.708;2023-10-08T02:29:44;24.40;47.70
80254;DHT22;69563;37.974;23.708;2023-10-08T02:32:10;24.30;47.70
80254;DHT22;69563;37.974;23.708;2023-10-08T02:34:36;24.30;47.70
80254;DHT22;69563;37.974;23.708;2023-10-08T02:37:02;24.30;47.70
80254;DHT22;69563;37.974;23.708;2023-10-08T02:39:30;24.30;47.70
80254;DHT22;69563;37.974;23.708;2023-10-08T02:41:57;24.30;47.80
80254;DHT22;69563;37.974;23.708;2023-10-08T02:44:25;24.30;47.70
80254;DHT22;69563;37.974;23.708;2023-10-08T02:46:52;24.30;47.70
80254;DHT22;69563;37.974;23.708;2023-10-08T02:49:20;24.40;47.70
80254;DHT22;69563;37.974;23.708;2023-10-08T02:51:52;24.40;47.80
80254;DHT22;69563;37.974;23.708;2023-10-08T02:54:19;24.40;47.80
80254;DHT22;69563;37.974;23.708;2023-10-08T02:56:56;24.30;47.70
80254;DHT22;69563;37.974;23.708;2023-10-08T02:59:32;24.30;47.70
80254;DHT22;69563;37.974;23.708;2023-10-08T03:02:05;24.30;47.70
80254;DHT22;69563;37.974;23.708;2023-10-08T03:04:43;24.30;47.80
80254;DHT22;69563;37.974;23.708;2023-10-08T03:07:15;24.30;47.80
80254;DHT22;69563;37.974;23.708;2023-10-08T03:09:53;24.30;47.90
80254;DHT22;69563;37.974;23.708;2023-10-08T03:12:34;24.30;47.80
80254;DHT22;69563;37.974;23.708;2023-10-08T03:15:03;24.30;47.90
80254;DHT22;69563;37.974;23.708;2023-10-08T03:17:47;24.30;47.90
80254;DHT22;69563;37.974;23.708;2023-10-08T03:20:18;24.20;47.90
80254;DHT22;69563;37.974;23.708;2023-10-08T03:23:03;24.20;48.00
80254;DHT22;69563;37.974;23.708;2023-10-08T03:25:38;24.20;48.00
80254;DHT22;69563;37.974;23.708;2023-10-08T03:28:08;24.20;48.00
80254;DHT22;69563;37.974;23.708;2023-10-08T03:30:34;24.20;48.00
80254;DHT22;69563;37.974;23.708;2023-10-08T03:33:13;24.20;48.00
80254;DHT22;69563;37.974;23.708;2023-10-08T03:35:50;24.20;48.00
80254;DHT22;69563;37.974;23.708;2023-10-08T03:38:21;24.20;48.00
80254;DHT22;69563;37.974;23.708;2023-10-08T03:40:56;24.20;48.00
80254;DHT22;69563;37.974;23.708;2023-10-08T03:43:45;24.20;48.00
80254;DHT22;69563;37.974;23.708;2023-10-08T03:46:33;24.20;48.00
80254;DHT22;69563;37.974;23.708;2023-10-08T03:49:05;24.20;48.00
80254;DHT22;69563;37.974;23.708;2023-10-08T03:51:46;24.20;48.00
80254;DHT22;69563;37.974;23.708;2023-10-08T03:54:13;24.20;48.00
80254;DHT22;69563;37.974;23.708;2023-10-08T03:56:45;24.20;48.00
80254;DHT22;69563;37.974;23.708;2023-10-08T03:59:15;24.20;48.10
80254;DHT22;69563;37.974;23.708;2023-10-08T04:02:04;24.20;48.10
80254;DHT22;69563;37.974;23.708;2023-10-08T04:04:53;24.20;48.10
80254;DHT22;69563;37.974;23.708;2023-10-08T04:07:24;24.20;48.10
80254;DHT22;69563;37.974;23.708;2023-10-08T04:09:50;24.20;48.20
80254;DHT22;69563;37.974;23.708;2023-10-08T04:12:30;24.10;48.70
80254;DHT22;69563;37.974;23.708;2023-10-08T04:15:04;24.10;48.20
80254;DHT22;69563;37.974;23.708;2023-10-08T04:17:34;24.10;48.20
80254;DHT22;69563;37.974;23.708;2023-10-08T04:20:10;24.10;48.20
80254;DHT22;69563;37.974;23.708;2023-10-08T04:22:57;24.20;48.30
80254;DHT22;69563;37.974;23.708;2023-10-08T04:25:27;24.10;48.20
80254;DHT22;69563;37.974;23.708;2023-10-08T04:27:58;24.10;48.20
80254;DHT22;69563;37.974;23.708;2023-10-08T04:30:34;24.10;48.20
80254;DHT22;69563;37.974;23.708;2023-10-08T04:33:01;24.10;48.20
80254;DHT22;69563;37.974;23.708;2023-10-08T04:35:37;24.20;48.20
80254;DHT22;69563;37.974;23.708;2023-10-08T04:38:23;24.10;48.10
80254;DHT22;69563;37.974;23.708;2023-10-08T04:40:52;24.20;48.10
80254;DHT22;69563;37.974;23.708;2023-10-08T04:43:19;24.20;48.10
80254;DHT22;69563;37.974;23.708;2023-10-08T04:45:58;24.20;48.10
80254;DHT22;69563;37.974;23.708;2023-10-08T04:48:25;24.20;48.10
80254;DHT22;69563;37.974;23.708;2023-10-08T04:50:53;24.20;48.10
80254;DHT22;69563;37.974;23.708;2023-10-08T04:53:25;24.20;48.10
80254;DHT22;69563;37.974;23.708;2023-10-08T04:55:57;24.10;48.10
80254;DHT22;69563;37.974;23.708;2023-10-08T04:58:23;24.10;48.30
80254;DHT22;69563;37.974;23.708;2023-10-08T05:01:02;24.10;48.20
80254;DHT22;69563;37.974;23.708;2023-10-08T05:03:48;24.10;48.20
80254;DHT22;69563;37.974;23.708;2023-10-08T05:06:40;24.20;48.30
80254;DHT22;69563;37.974;23.708;2023-10-08T05:09:16;24.10;48.20
80254;DHT22;69563;37.974;23.708;2023-10-08T05:11:46;24.10;48.20
80254;DHT22;69563;37.974;23.708;2023-10-08T05:14:22;24.20;48.20
80254;DHT22;69563;37.974;23.708;2023-10-08T05:17:03;24.20;48.10
80254;DHT22;69563;37.974;23.708;2023-10-08T05:19:35;24.20;48.10
80254;DHT22;69563;37.974;23.708;2023-10-08T05:22:17;24.30;48.00
80254;DHT22;69563;37.974;23.708;2023-10-08T05:24:49;24.30;47.90
80254;DHT22;69563;37.974;23.708;2023-10-08T05:27:38;24.40;47.80
80254;DHT22;69563;37.974;23.708;2023-10-08T05:30:27;24.40;47.70
80254;DHT22;69563;37.974;23.708;2023-10-08T05:32:59;24.50;47.60
80254;DHT22;69563;37.974;23.708;2023-10-08T05:35:44;24.50;47.40
80254;DHT22;69563;37.974;23.708;2023-10-08T05:38:12;24.60;48.30
80254;DHT22;69563;37.974;23.708;2023-10-08T05:40:57;24.70;47.30
80254;DHT22;69563;37.974;23.708;2023-10-08T05:43:31;24.80;47.00
80254;DHT22;69563;37.974;23.708;2023-10-08T05:46:14;24.80;46.90
80254;DHT22;69563;37.974;23.708;2023-10-08T05:48:58;24.90;46.70
80254;DHT22;69563;37.974;23.708;2023-10-08T05:51:34;25.00;46.60
80254;DHT22;69563;37.974;23.708;2023-10-08T05:54:25;25.00;46.40
80254;DHT22;69563;37.974;23.708;2023-10-08T05:56:57;25.10;46.30
80254;DHT22;69563;37.974;23.708;2023-10-08T05:59:33;25.10;46.20
80254;DHT22;69563;37.974;23.708;2023-10-08T06:02:32;25.20;46.40
80254;DHT22;69563;37.974;23.708;2023-10-08T06:07:44;25.30;45.90
80254;DHT22;69563;37.974;23.708;2023-10-08T06:10:31;25.30;45.80
80254;DHT22;69563;37.974;23.708;2023-10-08T06:13:07;25.40;45.70
80254;DHT22;69563;37.974;23.708;2023-10-08T06:15:40;25.40;45.60
80254;DHT22;69563;37.974;23.708;2023-10-08T06:18:23;25.50;45.60
80254;DHT22;69563;37.974;23.708;2023-10-08T06:20:53;25.50;45.50
80254;DHT22;69563;37.974;23.708;2023-10-08T06:23:25;25.50;45.40
80254;DHT22;69563;37.974;23.708;2023-10-08T06:25:52;25.60;45.30
80254;DHT22;69563;37.974;23.708;2023-10-08T06:28:31;25.60;46.30
80254;DHT22;69563;37.974;23.708;2023-10-08T06:31:01;25.60;45.20
80254;DHT22;69563;37.974;23.708;2023-10-08T06:33:28;25.70;45.20
80254;DHT22;69563;37.974;23.708;2023-10-08T06:35:59;25.70;45.10
80254;DHT22;69563;37.974;23.708;2023-10-08T06:38:34;25.70;45.00
80254;DHT22;69563;37.974;23.708;2023-10-08T06:41:01;25.70;44.90
80254;DHT22;69563;37.974;23.708;2023-10-08T06:43:34;25.80;44.90
80254;DHT22;69563;37.974;23.708;2023-10-08T06:46:03;25.80;44.80
80254;DHT22;69563;37.974;23.708;2023-10-08T06:48:29;25.80;44.80
80254;DHT22;69563;37.974;23.708;2023-10-08T06:50:55;25.80;44.80
80254;DHT22;69563;37.974;23.708;2023-10-08T06:53:33;25.90;44.80
80254;DHT22;69563;37.974;23.708;2023-10-08T06:55:59;25.90;44.70
80254;DHT22;69563;37.974;23.708;2023-10-08T06:58:30;25.90;44.70
80254;DHT22;69563;37.974;23.708;2023-10-08T07:01:00;25.90;44.60
80254;DHT22;69563;37.974;23.708;2023-10-08T07:03:31;26.00;44.60
80254;DHT22;69563;37.974;23.708;2023-10-08T07:05:58;26.00;44.60
80254;DHT22;69563;37.974;23.708;2023-10-08T07:08:26;26.00;44.50
80254;DHT22;69563;37.974;23.708;2023-10-08T07:10:53;26.00;44.50
80254;DHT22;69563;37.974;23.708;2023-10-08T07:13:22;26.00;44.40
80254;DHT22;69563;37.974;23.708;2023-10-08T07:15:50;26.10;44.40
80254;DHT22;69563;37.974;23.708;2023-10-08T07:18:17;26.10;44.40
80254;DHT22;69563;37.974;23.708;2023-10-08T07:20:53;26.10;44.30
80254;DHT22;69563;37.974;23.708;2023-10-08T07:23:20;26.10;44.30
80254;DHT22;69563;37.974;23.708;2023-10-08T07:26:02;26.10;44.30
80254;DHT22;69563;37.974;23.708;2023-10-08T07:28:38;26.10;44.20
80254;DHT22;69563;37.974;23.708;2023-10-08T07:31:17;26.10;44.20
80254;DHT22;69563;37.974;23.708;2023-10-08T07:33:51;26.20;44.20
80254;DHT22;69563;37.974;23.708;2023-10-08T07:36:24;26.10;44.20
80254;DHT22;69563;37.974;23.708;2023-10-08T07:38:52;26.10;45.20
80254;DHT22;69563;37.974;23.708;2023-10-08T07:41:18;26.10;44.10
80254;DHT22;69563;37.974;23.708;2023-10-08T07:43:46;26.10;44.10
80254;DHT22;69563;37.974;23.708;2023-10-08T07:46:24;26.10;44.10
80254;DHT22;69563;37.974;23.708;2023-10-08T07:48:52;26.10;44.10
80254;DHT22;69563;37.974;23.708;2023-10-08T07:51:18;26.10;44.10
80254;DHT22;69563;37.974;23.708;2023-10-08T07:53:48;26.10;44.10
80254;DHT22;69563;37.974;23.708;2023-10-08T07:56:14;26.10;44.10
80254;DHT22;69563;37.974;23.708;2023-10-08T07:58:40;26.10;44.10
80254;DHT22;69563;37.974;23.708;2023-10-08T08:01:09;26.10;44.00
80254;DHT22;69563;37.974;23.708;2023-10-08T08:03:36;26.20;44.10
80254;DHT22;69563;37.974;23.708;2023-10-08T08:06:09;26.20;44.00
80254;DHT22;69563;37.974;23.708;2023-10-08T08:08:36;26.20;44.00
80254;DHT22;69563;37.974;23.708;2023-10-08T08:11:06;26.20;44.00
80254;DHT22;69563;37.974;23.708;2023-10-08T08:13:38;26.20;44.00
80254;DHT22;69563;37.974;23.708;2023-10-08T08:16:05;26.20;44.00
80254;DHT22;69563;37.974;23.708;2023-10-08T08:18:47;26.20;44.00
80254;DHT22;69563;37.974;23.708;2023-10-08T08:21:15;26.20;44.00
80254;DHT22;69563;37.974;23.708;2023-10-08T08:23:46;26.20;44.00
80254;DHT22;69563;37.974;23.708;2023-10-08T08:28:56;26.20;44.00
80254;DHT22;69563;37.974;23.708;2023-10-08T08:31:23;26.20;44.00
80254;DHT22;69563;37.974;23.708;2023-10-08T08:33:50;26.20;43.90
80254;DHT22;69563;37.974;23.708;2023-10-08T08:36:23;26.20;44.00
80254;DHT22;69563;37.974;23.708;2023-10-08T08:38:50;26.20;43.90
80254;DHT22;69563;37.974;23.708;2023-10-08T08:41:16;26.20;44.00
80254;DHT22;69563;37.974;23.708;2023-10-08T08:43:53;26.20;44.00
80254;DHT22;69563;37.974;23.708;2023-10-08T08:46:35;26.20;44.00
80254;DHT22;69563;37.974;23.708;2023-10-08T08:49:05;26.20;44.00
80254;DHT22;69563;37.974;23.708;2023-10-08T08:51:34;26.20;44.00
80254;DHT22;69563;37.974;23.708;2023-10-08T08:54:01;26.20;43.90
80254;DHT22;69563;37.974;23.708;2023-10-08T08:56:33;26.20;44.00
80254;DHT22;69563;37.974;23.708;2023-10-08T08:59:00;26.20;44.00
80254;DHT22;69563;37.974;23.708;2023-10-08T09:01:27;26.20;43.90
80254;DHT22;69563;37.974;23.708;2023-10-08T09:04:02;26.20;43.90
80254;DHT22;69563;37.974;23.708;2023-10-08T09:06:33;26.20;44.00
80254;DHT22;69563;37.974;23.708;2023-10-08T09:09:02;26.20;44.00
80254;DHT22;69563;37.974;23.708;2023-10-08T09:11:52;26.20;44.00
80254;DHT22;69563;37.974;23.708;2023-10-08T09:14:24;26.20;43.90
80254;DHT22;69563;37.974;23.708;2023-10-08T09:16:56;26.20;44.00
80254;DHT22;69563;37.974;23.708;2023-10-08T09:19:23;26.20;43.90
80254;DHT22;69563;37.974;23.708;2023-10-08T09:24:39;26.20;43.90
80254;DHT22;69563;37.974;23.708;2023-10-08T09:27:12;26.20;43.90
80254;DHT22;69563;37.974;23.708;2023-10-08T09:29:42;26.20;44.00
80254;DHT22;69563;37.974;23.708;2023-10-08T09:32:12;26.20;44.00
80254;DHT22;69563;37.974;23.708;2023-10-08T09:34:49;26.20;44.00
80254;DHT22;69563;37.974;23.708;2023-10-08T09:37:17;26.20;43.90
80254;DHT22;69563;37.974;23.708;2023-10-08T09:39:48;26.20;44.00
80254;DHT22;69563;37.974;23.708;2023-10-08T09:42:15;26.20;43.90
80254;DHT22;69563;37.974;23.708;2023-10-08T09:44:40;26.20;43.80
80254;DHT22;69563;37.974;23.708;2023-10-08T09:47:09;26.20;43.90
80254;DHT22;69563;37.974;23.708;2023-10-08T09:49:38;26.20;43.90
80254;DHT22;69563;37.974;23.708;2023-10-08T09:52:08;26.20;43.90
80254;DHT22;69563;37.974;23.708;2023-10-08T09:54:59;26.20;43.80
80254;DHT22;69563;37.974;23.708;2023-10-08T09:57:27;26.20;43.80
80254;DHT22;69563;37.974;23.708;2023-10-08T09:59:52;26.20;43.90
80254;DHT22;69563;37.974;23.708;2023-10-08T10:02:19;26.20;43.80
80254;DHT22;69563;37.974;23.708;2023-10-08T10:04:50;26.20;43.80
80254;DHT22;69563;37.974;23.708;2023-10-08T10:07:19;26.20;43.80
80254;DHT22;69563;37.974;23.708;2023-10-08T10:09:49;26.20;43.80
80254;DHT22;69563;37.974;23.708;2023-10-08T10:12:25;26.20;43.80
80254;DHT22;69563;37.974;23.708;2023-10-08T10:14:53;26.20;43.80
80254;DHT22;69563;37.974;23.708;2023-10-08T10:17:24;26.20;43.80
80254;DHT22;69563;37.974;23.708;2023-10-08T10:20:01;26.20;43.70
80254;DHT22;69563;37.974;23.708;2023-10-08T10:22:34;26.20;43.70
80254;DHT22;69563;37.974;23.708;2023-10-08T10:25:04;26.20;43.70
80254;DHT22;69563;37.974;23.708;2023-10-08T10:30:19;26.20;43.70
80254;DHT22;69563;37.974;23.708;2023-10-08T10:32:45;26.20;43.70
80254;DHT22;69563;37.974;23.708;2023-10-08T10:35:16;26.20;43.70
80254;DHT22;69563;37.974;23.708;2023-10-08T10:37:45;26.20;43.60
80254;DHT22;69563;37.974;23.708;2023-10-08T10:40:23;26.20;43.60
80254;DHT22;69563;37.974;23.708;2023-10-08T10:43:05;26.20;43.60
80254;DHT22;69563;37.974;23.708;2023-10-08T10:45:41;26.20;43.60
80254;DHT22;69563;37.974;23.708;2023-10-08T10:48:13;26.20;43.60
80254;DHT22;69563;37.974;23.708;2023-10-08T10:50:48;26.20;43.60
80254;DHT22;69563;37.974;23.708;2023-10-08T10:53:40;26.20;43.70
80254;DHT22;69563;37.974;23.708;2023-10-08T10:56:32;26.20;43.60
80254;DHT22;69563;37.974;23.708;2023-10-08T10:59:05;26.20;43.60
80254;DHT22;69563;37.974;23.708;2023-10-08T11:01:53;26.20;43.60
80254;DHT22;69563;37.974;23.708;2023-10-08T11:04:31;26.20;43.60
80254;DHT22;69563;37.974;23.708;2023-10-08T11:06:58;26.20;43.60
80254;DHT22;69563;37.974;23.708;2023-10-08T11:09:26;26.20;43.60
80254;DHT22;69563;37.974;23.708;2023-10-08T11:12:03;26.20;43.50
80254;DHT22;69563;37.974;23.708;2023-10-08T11:14:40;26.20;43.50
80254;DHT22;69563;37.974;23.708;2023-10-08T11:17:25;26.20;43.50
80254;DHT22;69563;37.974;23.708;2023-10-08T11:19:52;26.20;43.50
80254;DHT22;69563;37.974;23.708;2023-10-08T11:22:18;26.20;43.50
80254;DHT22;69563;37.974;23.708;2023-10-08T11:24:48;26.20;43.50
80254;DHT22;69563;37.974;23.708;2023-10-08T11:27:17;26.20;43.50
80254;DHT22;69563;37.974;23.708;2023-10-08T11:29:55;26.20;43.50
80254;DHT22;69563;37.974;23.708;2023-10-08T11:32:25;26.20;43.50
80254;DHT22;69563;37.974;23.708;2023-10-08T11:34:58;26.20;43.40
80254;DHT22;69563;37.974;23.708;2023-10-08T11:37:47;26.20;43.50
80254;DHT22;69563;37.974;23.708;2023-10-08T11:40:26;26.20;43.50
80254;DHT22;69563;37.974;23.708;2023-10-08T11:43:12;26.20;43.50
80254;DHT22;69563;37.974;23.708;2023-10-08T11:45:42;26.20;43.50
80254;DHT22;69563;37.974;23.708;2023-10-08T11:48:14;26.20;43.50
80254;DHT22;69563;37.974;23.708;2023-10-08T11:50:43;26.20;43.50
80254;DHT22;69563;37.974;23.708;2023-10-08T11:53:09;26.20;43.40
80254;DHT22;69563;37.974;23.708;2023-10-08T11:55:37;26.20;43.50
80254;DHT22;69563;37.974;23.708;2023-10-08T11:58:08;26.20;43.40
80254;DHT22;69563;37.974;23.708;2023-10-08T12:00:41;26.20;43.50
80254;DHT22;69563;37.974;23.708;2023-10-08T12:03:14;26.20;43.40
80254;DHT22;69563;37.974;23.708;2023-10-08T12:05:48;26.30;43.50
80254;DHT22;69563;37.974;23.708;2023-10-08T12:08:18;26.20;43.40
80254;DHT22;69563;37.974;23.708;2023-10-08T12:10:46;26.20;43.40
80254;DHT22;69563;37.974;23.708;2023-10-08T12:13:14;26.30;43.50
80254;DHT22;69563;37.974;23.708;2023-10-08T12:15:44;26.30;43.50
80254;DHT22;69563;37.974;23.708;2023-10-08T12:18:10;26.30;43.50
80254;DHT22;69563;37.974;23.708;2023-10-08T12:20:51;26.30;43.50
80254;DHT22;69563;37.974;23.708;2023-10-08T12:23:18;26.30;43.50
80254;DHT22;69563;37.974;23.708;2023-10-08T12:25:57;26.30;43.60
80254;DHT22;69563;37.974;23.708;2023-10-08T12:28:24;26.30;43.50
80254;DHT22;69563;37.974;23.708;2023-10-08T12:30:50;26.20;43.40
80254;DHT22;69563;37.974;23.708;2023-10-08T12:33:20;26.30;43.50
80254;DHT22;69563;37.974;23.708;2023-10-08T12:35:48;26.20;43.40
80254;DHT22;69563;37.974;23.708;2023-10-08T12:38:14;26.30;43.50
80254;DHT22;69563;37.974;23.708;2023-10-08T12:40:41;26.30;43.50
80254;DHT22;69563;37.974;23.708;2023-10-08T12:43:22;26.30;43.50
80254;DHT22;69563;37.974;23.708;2023-10-08T12:45:52;26.30;43.50
80254;DHT22;69563;37.974;23.708;2023-10-08T12:48:22;26.30;43.50
80254;DHT22;69563;37.974;23.708;2023-10-08T12:50:50;26.30;43.50
80254;DHT22;69563;37.974;23.708;2023-10-08T12:53:37;26.20;43.40
80254;DHT22;69563;37.974;23.708;2023-10-08T12:56:08;26.20;43.50
80254;DHT22;69563;37.974;23.708;2023-10-08T12:58:41;26.30;43.70
80254;DHT22;69563;37.974;23.708;2023-10-08T13:01:12;26.20;43.50
80254;DHT22;69563;37.974;23.708;2023-10-08T13:03:40;26.20;43.60
80254;DHT22;69563;37.974;23.708;2023-10-08T13:06:14;26.20;43.50
80254;DHT22;69563;37.974;23.708;2023-10-08T13:08:58;26.20;44.50
80254;DHT22;69563;37.974;23.708;2023-10-08T13:11:25;26.20;43.50
80254;DHT22;69563;37.974;23.708;2023-10-08T13:13:53;26.30;43.60
80254;DHT22;69563;37.974;23.708;2023-10-08T13:16:22;26.20;43.50
80254;DHT22;69563;37.974;23.708;2023-10-08T13:18:49;26.20;43.50
80254;DHT22;69563;37.974;23.708;2023-10-08T13:21:16;26.30;43.60
80254;DHT22;69563;37.974;23.708;2023-10-08T13:23:42;26.30;43.60
80254;DHT22;69563;37.974;23.708;2023-10-08T13:26:08;26.30;43.60
80254;DHT22;69563;37.974;23.708;2023-10-08T13:28:37;26.20;43.50
80254;DHT22;69563;37.974;23.708;2023-10-08T13:31:03;26.30;43.60
80254;DHT22;69563;37.974;23.708;2023-10-08T13:33:39;26.30;43.60
80254;DHT22;69563;37.974;23.708;2023-10-08T13:36:06;26.30;43.60
80254;DHT22;69563;37.974;23.708;2023-10-08T13:38:35;26.30;43.60
80254;DHT22;69563;37.974;23.708;2023-10-08T13:41:02;26.30;43.70
80254;DHT22;69563;37.974;23.708;2023-10-08T13:43:33;26.30;43.60
80254;DHT22;69563;37.974;23.708;2023-10-08T13:46:01;26.30;43.60
80254;DHT22;69563;37.974;23.708;2023-10-08T13:48:34;26.30;43.70
80254;DHT22;69563;37.974;23.708;2023-10-08T13:51:02;26.30;43.70
80254;DHT22;69563;37.974;23.708;2023-10-08T13:53:30;26.30;43.70
80254;DHT22;69563;37.974;23.708;2023-10-08T13:56:00;26.30;43.70
80254;DHT22;69563;37.974;23.708;2023-10-08T13:58:27;26.30;43.70
80254;DHT22;69563;37.974;23.708;2023-10-08T14:00:58;26.20;43.70
80254;DHT22;69563;37.974;23.708;2023-10-08T14:03:32;26.30;43.80
80254;DHT22;69563;37.974;23.708;2023-10-08T14:05:58;26.30;43.80
80254;DHT22;69563;37.974;23.708;2023-10-08T14:08:29;26.20;43.80
80254;DHT22;69563;37.974;23.708;2023-10-08T14:10:56;26.30;43.80
80254;DHT22;69563;37.974;23.708;2023-10-08T14:13:29;26.30;43.80
80254;DHT22;69563;37.974;23.708;2023-10-08T14:16:00;26.30;43.90
80254;DHT22;69563;37.974;23.708;2023-10-08T14:18:30;26.30;43.90
80254;DHT22;69563;37.974;23.708;2023-10-08T14:21:09;26.20;43.90
80254;DHT22;69563;37.974;23.708;2023-10-08T14:23:37;26.20;44.00
80254;DHT22;69563;37.974;23.708;2023-10-08T14:26:07;26.30;44.00
80254;DHT22;69563;37.974;23.708;2023-10-08T14:28:34;26.20;44.00
80254;DHT22;69563;37.974;23.708;2023-10-08T14:31:08;26.20;44.10
80254;DHT22;69563;37.974;23.708;2023-10-08T14:33:34;26.20;44.00
80254;DHT22;69563;37.974;23.708;2023-10-08T14:36:10;26.20;44.10
80254;DHT22;69563;37.974;23.708;2023-10-08T14:38:55;26.20;44.00
80254;DHT22;69563;37.974;23.708;2023-10-08T14:41:39;26.20;45.10
80254;DHT22;69563;37.974;23.708;2023-10-08T14:44:23;26.20;44.10
80254;DHT22;69563;37.974;23.708;2023-10-08T14:46:50;26.20;44.10
80254;DHT22;69563;37.974;23.708;2023-10-08T14:49:16;26.20;44.10
80254;DHT22;69563;37.974;23.708;2023-10-08T14:51:42;26.20;44.10
80254;DHT22;69563;37.974;23.708;2023-10-08T14:54:09;26.20;44.20
80254;DHT22;69563;37.974;23.708;2023-10-08T14:56:35;26.20;44.10
80254;DHT22;69563;37.974;23.708;2023-10-08T14:59:02;26.20;44.20
80254;DHT22;69563;37.974;23.708;2023-10-08T15:01:29;26.20;44.20
80254;DHT22;69563;37.974;23.708;2023-10-08T15:03:59;26.20;44.20
80254;DHT22;69563;37.974;23.708;2023-10-08T15:06:32;26.20;44.20
80254;DHT22;69563;37.974;23.708;2023-10-08T15:08:58;26.20;44.30
80254;DHT22;69563;37.974;23.708;2023-10-08T15:11:24;26.20;44.20
80254;DHT22;69563;37.974;23.708;2023-10-08T15:13:56;26.20;45.20
80254;DHT22;69563;37.974;23.708;2023-10-08T15:16:23;26.20;44.30
80254;DHT22;69563;37.974;23.708;2023-10-08T15:18:50;26.20;44.30
80254;DHT22;69563;37.974;23.708;2023-10-08T15:21:17;26.20;44.40
80254;DHT22;69563;37.974;23.708;2023-10-08T15:23:44;26.20;44.40
80254;DHT22;69563;37.974;23.708;2023-10-08T15:26:11;26.20;44.40
80254;DHT22;69563;37.974;23.708;2023-10-08T15:28:38;26.10;44.30
80254;DHT22;69563;37.974;23.708;2023-10-08T15:31:05;26.10;44.30
80254;DHT22;69563;37.974;23.708;2023-10-08T15:33:31;26.20;44.40
80254;DHT22;69563;37.974;23.708;2023-10-08T15:35:56;26.10;44.30
80254;DHT22;69563;37.974;23.708;2023-10-08T15:38:23;26.10;44.30
80254;DHT22;69563;37.974;23.708;2023-10-08T15:40:50;26.10;44.40
80254;DHT22;69563;37.974;23.708;2023-10-08T15:43:16;26.10;44.40
80254;DHT22;69563;37.974;23.708;2023-10-08T15:45:43;26.10;44.40
80254;DHT22;69563;37.974;23.708;2023-10-08T15:48:10;26.10;44.40
80254;DHT22;69563;37.974;23.708;2023-10-08T15:50:36;26.10;44.50
80254;DHT22;69563;37.974;23.708;2023-10-08T15:53:02;26.10;44.50
80254;DHT22;69563;37.974;23.708;2023-10-08T15:55:28;26.10;44.50